createdAt,value
2018-04-23T00:00:14.370Z,14.81
2018-04-23T00:01:23.214Z,14.83
2018-04-23T00:02:32.330Z,14.83
2018-04-23T00:03:41.164Z,14.84
2018-04-23T00:04:50.001Z,14.81
2018-04-23T00:05:58.841Z,14.7
2018-04-23T00:07:07.674Z,14.7
2018-04-23T00:08:16.514Z,14.69
2018-04-23T00:09:25.625Z,14.64
2018-04-23T00:10:34.461Z,14.64
2018-04-23T00:11:43.295Z,14.68
2018-04-23T00:12:52.404Z,14.61
2018-04-23T00:14:01.246Z,14.75
2018-04-23T00:15:10.080Z,14.77
2018-04-23T00:16:18.917Z,14.73
2018-04-23T00:17:27.751Z,14.77
2018-04-23T00:18:36.589Z,14.72
2018-04-23T00:19:45.422Z,14.84
2018-04-23T00:20:54.259Z,14.75
2018-04-23T00:22:03.091Z,14.78
2018-04-23T00:23:11.923Z,14.8
2018-04-23T00:24:20.756Z,14.77
2018-04-23T00:25:29.590Z,14.8
2018-04-23T00:26:38.426Z,14.73
2018-04-23T00:27:47.537Z,14.78
2018-04-23T00:28:56.369Z,14.78
2018-04-23T00:30:05.200Z,14.83
2018-04-23T00:31:14.036Z,14.73
2018-04-23T00:32:23.150Z,14.96
2018-04-23T00:33:31.985Z,14.92
2018-04-23T00:34:40.819Z,14.86
2018-04-23T00:35:49.652Z,14.86
2018-04-23T00:36:58.485Z,14.95
2018-04-23T00:38:07.320Z,14.89
2018-04-23T00:39:16.155Z,14.88
2018-04-23T00:40:25.263Z,14.89
2018-04-23T00:41:34.101Z,14.91
2018-04-23T00:42:42.938Z,14.86
2018-04-23T00:43:51.773Z,14.92
2018-04-23T00:45:00.609Z,14.95
2018-04-23T00:46:09.996Z,14.92
2018-04-23T00:47:19.104Z,14.94
2018-04-23T00:48:27.940Z,14.98
2018-04-23T00:49:36.773Z,14.95
2018-04-23T00:50:45.608Z,14.96
2018-04-23T00:51:54.449Z,14.98
2018-04-23T00:53:03.838Z,14.95
2018-04-23T00:54:12.673Z,14.98
2018-04-23T00:55:21.788Z,15.03
2018-04-23T00:56:30.899Z,15.02
2018-04-23T00:57:39.734Z,14.99
2018-04-23T00:58:48.853Z,14.92
2018-04-23T00:59:57.686Z,15.02
2018-04-23T01:01:06.521Z,15.01
2018-04-23T01:02:15.362Z,15.01
2018-04-23T01:03:24.195Z,14.99
2018-04-23T01:04:33.032Z,14.98
2018-04-23T01:05:42.141Z,14.96
2018-04-23T01:06:50.975Z,14.99
2018-04-23T01:08:00.094Z,14.99
2018-04-23T01:09:08.940Z,14.96
2018-04-23T01:10:17.766Z,15.09
2018-04-23T01:11:26.600Z,15.11
2018-04-23T01:12:35.435Z,15.02
2018-04-23T01:13:44.268Z,15.01
2018-04-23T01:14:53.656Z,15.01
2018-04-23T01:16:02.488Z,15.02
2018-04-23T01:17:11.600Z,15.02
2018-04-23T01:18:20.438Z,15.09
2018-04-23T01:19:29.273Z,15.09
2018-04-23T01:20:38.390Z,14.98
2018-04-23T01:21:47.495Z,15.14
2018-04-23T01:22:56.330Z,15.06
2018-04-23T01:24:05.167Z,14.99
2018-04-23T01:25:14.278Z,14.98
2018-04-23T01:26:23.120Z,14.99
2018-04-23T01:27:31.948Z,14.96
2018-04-23T01:28:40.781Z,14.98
2018-04-23T01:29:49.616Z,14.99
2018-04-23T01:30:58.722Z,14.98
2018-04-23T01:32:07.561Z,14.98
2018-04-23T01:33:16.391Z,14.96
2018-04-23T01:34:25.230Z,14.99
2018-04-23T01:35:34.338Z,14.99
2018-04-23T01:36:43.502Z,15.02
2018-04-23T01:37:52.332Z,14.99
2018-04-23T01:39:01.172Z,15.06
2018-04-23T01:40:10.003Z,14.99
2018-04-23T01:41:19.121Z,14.98
2018-04-23T01:42:28.238Z,15.02
2018-04-23T01:43:37.077Z,15.1
2018-04-23T01:44:45.911Z,15.1
2018-04-23T01:45:54.747Z,15.1
2018-04-23T01:47:03.581Z,15.1
2018-04-23T01:48:12.425Z,15.13
2018-04-23T01:49:21.250Z,15.11
2018-04-23T01:50:30.081Z,15.23
2018-04-23T01:51:38.915Z,15.17
2018-04-23T01:52:48.022Z,15.09
2018-04-23T01:53:56.859Z,15.16
2018-04-23T01:55:05.695Z,15.13
2018-04-23T01:56:14.811Z,15.13
2018-04-23T01:57:23.645Z,15.25
2018-04-23T01:58:32.771Z,15.21
2018-04-23T01:59:41.598Z,15.17
2018-04-23T02:00:50.432Z,15.35
2018-04-23T02:01:59.271Z,15.29
2018-04-23T02:03:08.387Z,15.27
2018-04-23T02:04:17.220Z,15.29
2018-04-23T02:05:26.060Z,15.28
2018-04-23T02:06:35.449Z,15.28
2018-04-23T02:07:44.286Z,15.29
2018-04-23T02:08:53.122Z,15.27
2018-04-23T02:10:02.236Z,15.14
2018-04-23T02:11:11.346Z,15.16
2018-04-23T02:12:20.185Z,15.25
2018-04-23T02:13:29.290Z,15.25
2018-04-23T02:14:38.128Z,15.31
2018-04-23T02:15:46.966Z,15.31
2018-04-23T02:16:56.081Z,15.28
2018-04-23T02:18:04.920Z,15.29
2018-04-23T02:19:14.040Z,15.28
2018-04-23T02:20:22.880Z,15.28
2018-04-23T02:21:31.713Z,15.34
2018-04-23T02:22:40.548Z,15.35
2018-04-23T02:23:49.381Z,15.28
2018-04-23T02:24:58.215Z,15.34
2018-04-23T02:26:07.056Z,15.25
2018-04-23T02:27:15.886Z,15.23
2018-04-23T02:28:24.779Z,15.36
2018-04-23T02:29:34.166Z,15.35
2018-04-23T02:30:43.279Z,15.21
2018-04-23T02:31:52.396Z,15.29
2018-04-23T02:33:01.228Z,15.31
2018-04-23T02:34:10.343Z,15.31
2018-04-23T02:35:19.731Z,15.28
2018-04-23T02:36:29.403Z,15.34
2018-04-23T02:37:38.247Z,15.28
2018-04-23T02:38:47.096Z,15.34
2018-04-23T02:39:56.207Z,15.32
2018-04-23T02:41:05.052Z,15.32
2018-04-23T02:42:14.162Z,15.39
2018-04-23T02:43:23.849Z,15.36
2018-04-23T02:44:32.969Z,15.27
2018-04-23T02:45:41.955Z,15.36
2018-04-23T02:46:51.063Z,15.44
2018-04-23T02:48:00.181Z,15.38
2018-04-23T02:49:09.291Z,15.38
2018-04-23T02:50:18.403Z,15.43
2018-04-23T02:51:27.246Z,15.28
2018-04-23T02:52:36.081Z,15.36
2018-04-23T02:53:45.191Z,15.32
2018-04-23T02:54:54.029Z,15.39
2018-04-23T02:56:02.867Z,15.36
2018-04-23T02:57:11.986Z,15.43
2018-04-23T02:58:21.647Z,15.29
2018-04-23T02:59:31.047Z,15.39
2018-04-23T03:00:40.163Z,15.31
2018-04-23T03:01:49.271Z,15.36
2018-04-23T03:02:58.386Z,15.21
2018-04-23T03:04:07.779Z,15.32
2018-04-23T03:05:17.444Z,15.34
2018-04-23T03:06:26.842Z,15.25
2018-04-23T03:07:36.239Z,15.23
2018-04-23T03:08:45.073Z,15.27
2018-04-23T03:09:53.909Z,15.25
2018-04-23T03:11:02.746Z,15.25
2018-04-23T03:12:12.130Z,15.29
2018-04-23T03:13:21.790Z,15.31
2018-04-23T03:14:30.900Z,15.28
2018-04-23T03:15:39.736Z,15.25
2018-04-23T03:16:48.570Z,15.2
2018-04-23T03:17:57.403Z,15.16
2018-04-23T03:19:06.237Z,15.17
2018-04-23T03:20:15.069Z,15.06
2018-04-23T03:21:23.903Z,15.13
2018-04-23T03:22:32.738Z,15.2
2018-04-23T03:23:41.570Z,15.14
2018-04-23T03:24:50.407Z,15.06
2018-04-23T03:25:59.245Z,15.14
2018-04-23T03:27:08.082Z,15.17
2018-04-23T03:28:16.920Z,15.1
2018-04-23T03:29:25.754Z,15.13
2018-04-23T03:30:34.870Z,15.03
2018-04-23T03:31:44.261Z,14.96
2018-04-23T03:32:53.648Z,15.1
2018-04-23T03:34:02.760Z,15.1
2018-04-23T03:35:11.874Z,15.02
2018-04-23T03:36:20.705Z,15.03
2018-04-23T03:37:29.818Z,14.99
2018-04-23T03:38:38.650Z,14.99
2018-04-23T03:39:47.482Z,15.02
2018-04-23T03:40:56.317Z,14.96
2018-04-23T03:42:05.432Z,14.96
2018-04-23T03:43:14.542Z,14.89
2018-04-23T03:44:23.663Z,14.94
2018-04-23T03:45:32.488Z,14.96
2018-04-23T03:46:41.322Z,14.91
2018-04-23T03:47:50.156Z,14.92
2018-04-23T03:48:58.992Z,14.89
2018-04-23T03:50:07.829Z,14.91
2018-04-23T03:51:16.666Z,14.91
2018-04-23T03:52:25.501Z,14.89
2018-04-23T03:53:34.334Z,14.91
2018-04-23T03:54:43.167Z,14.88
2018-04-23T03:55:52.278Z,14.84
2018-04-23T03:57:01.389Z,14.86
2018-04-23T03:58:10.225Z,14.86
2018-04-23T03:59:19.061Z,14.91
2018-04-23T04:00:27.896Z,14.88
2018-04-23T04:01:37.012Z,14.81
2018-04-23T04:02:46.122Z,14.8
2018-04-23T04:03:55.231Z,14.83
2018-04-23T04:05:04.064Z,14.81
2018-04-23T04:06:12.900Z,14.81
2018-04-23T04:07:21.735Z,14.75
2018-04-23T04:08:30.575Z,14.84
2018-04-23T04:09:39.683Z,14.75
2018-04-23T04:10:48.519Z,14.77
2018-04-23T04:11:57.653Z,14.81
2018-04-23T04:13:06.486Z,14.73
2018-04-23T04:14:15.326Z,14.72
2018-04-23T04:15:24.436Z,14.69
2018-04-23T04:16:33.270Z,14.83
2018-04-23T04:17:42.103Z,14.77
2018-04-23T04:18:50.939Z,14.65
2018-04-23T04:19:59.774Z,14.81
2018-04-23T04:21:08.888Z,14.65
2018-04-23T04:22:17.721Z,14.78
2018-04-23T04:23:26.563Z,14.75
2018-04-23T04:24:35.392Z,14.69
2018-04-23T04:25:44.507Z,14.72
2018-04-23T04:26:53.340Z,14.77
2018-04-23T04:28:02.173Z,14.81
2018-04-23T04:29:11.007Z,14.64
2018-04-23T04:30:20.120Z,14.64
2018-04-23T04:31:28.956Z,14.72
2018-04-23T04:32:37.793Z,14.73
2018-04-23T04:33:46.633Z,14.65
2018-04-23T04:34:55.461Z,14.7
2018-04-23T04:36:04.296Z,14.69
2018-04-23T04:37:13.411Z,14.77
2018-04-23T04:38:22.584Z,14.72
2018-04-23T04:39:31.975Z,14.75
2018-04-23T04:40:41.084Z,14.77
2018-04-23T04:41:50.198Z,14.78
2018-04-23T04:42:59.314Z,14.7
2018-04-23T04:44:08.150Z,14.68
2018-04-23T04:45:16.986Z,14.75
2018-04-23T04:46:26.098Z,14.8
2018-04-23T04:47:35.357Z,14.8
2018-04-23T04:48:44.194Z,14.73
2018-04-23T04:49:53.027Z,14.83
2018-04-23T04:51:02.137Z,14.8
2018-04-23T04:52:10.978Z,14.86
2018-04-23T04:53:19.814Z,14.84
2018-04-23T04:54:28.650Z,14.68
2018-04-23T04:55:37.486Z,14.75
2018-04-23T04:56:46.379Z,14.83
2018-04-23T04:57:55.480Z,14.8
2018-04-23T04:59:04.398Z,14.8
2018-04-23T05:00:13.427Z,14.83
2018-04-23T05:01:22.262Z,14.81
2018-04-23T05:02:31.101Z,14.83
2018-04-23T05:03:40.211Z,14.77
2018-04-23T05:04:49.326Z,14.7
2018-04-23T05:05:58.201Z,14.68
2018-04-23T05:07:07.314Z,14.73
2018-04-23T05:08:16.149Z,14.77
2018-04-23T05:09:24.986Z,14.72
2018-04-23T05:10:33.822Z,14.69
2018-04-23T05:11:42.661Z,14.64
2018-04-23T05:12:51.773Z,14.64
2018-04-23T05:14:00.795Z,14.78
2018-04-23T05:15:09.652Z,14.62
2018-04-23T05:16:18.488Z,14.61
2018-04-23T05:17:27.371Z,14.75
2018-04-23T05:18:36.206Z,14.62
2018-04-23T05:19:45.047Z,14.58
2018-04-23T05:20:53.881Z,14.7
2018-04-23T05:22:02.718Z,14.62
2018-04-23T05:23:11.552Z,14.64
2018-04-23T05:24:20.387Z,14.64
2018-04-23T05:25:29.224Z,14.7
2018-04-23T05:26:38.069Z,14.62
2018-04-23T05:27:47.173Z,14.64
2018-04-23T05:28:56.564Z,14.77
2018-04-23T05:30:05.703Z,14.73
2018-04-23T05:31:15.099Z,14.61
2018-04-23T05:32:24.208Z,14.72
2018-04-23T05:33:33.320Z,14.73
2018-04-23T05:34:42.205Z,14.78
2018-04-23T05:35:51.042Z,14.72
2018-04-23T05:36:59.881Z,14.77
2018-04-23T05:38:09.543Z,14.75
2018-04-23T05:39:18.381Z,14.88
2018-04-23T05:40:27.215Z,14.95
2018-04-23T05:41:36.327Z,14.95
2018-04-23T05:42:45.164Z,14.96
2018-04-23T05:43:54.290Z,15.06
2018-04-23T05:45:03.110Z,15.1
2018-04-23T05:46:12.221Z,15.1
2018-04-23T05:47:21.057Z,15.13
2018-04-23T05:48:29.894Z,15.11
2018-04-23T05:49:39.008Z,15.13
2018-04-23T05:50:48.112Z,15.25
2018-04-23T05:51:57.269Z,15.25
2018-04-23T05:53:06.106Z,15.29
2018-04-23T05:54:14.941Z,15.28
2018-04-23T05:55:24.051Z,15.23
2018-04-23T05:56:32.888Z,15.23
2018-04-23T05:57:42.003Z,15.29
2018-04-23T05:58:50.840Z,15.32
2018-04-23T05:59:59.675Z,15.25
2018-04-23T06:01:08.553Z,15.29
2018-04-23T06:02:17.671Z,15.25
2018-04-23T06:03:26.504Z,15.23
2018-04-23T06:04:35.340Z,15.27
2018-04-23T06:05:44.454Z,15.25
2018-04-23T06:06:53.561Z,15.27
2018-04-23T06:08:02.396Z,15.29
2018-04-23T06:09:11.233Z,15.34
2018-04-23T06:10:20.072Z,15.31
2018-04-23T06:11:28.937Z,15.29
2018-04-23T06:12:38.021Z,15.25
2018-04-23T06:13:46.857Z,15.2
2018-04-23T06:14:55.694Z,15.29
2018-04-23T06:16:04.533Z,15.2
2018-04-23T06:17:13.364Z,15.1
2018-04-23T06:18:22.200Z,15.09
2018-04-23T06:19:31.037Z,15.17
2018-04-23T06:20:39.971Z,15.17
2018-04-23T06:21:48.805Z,15.1
2018-04-23T06:22:57.643Z,15.1
2018-04-23T06:24:06.484Z,15.07
2018-04-23T06:25:15.597Z,15.14
2018-04-23T06:26:24.533Z,14.98
2018-04-23T06:27:33.376Z,15.17
2018-04-23T06:28:42.211Z,15.06
2018-04-23T06:29:51.046Z,15.1
2018-04-23T06:30:59.896Z,15.19
2018-04-23T06:32:09.014Z,15.14
2018-04-23T06:33:17.857Z,15.1
2018-04-23T06:34:26.978Z,15.06
2018-04-23T06:35:36.094Z,15.1
2018-04-23T06:36:44.938Z,15.13
2018-04-23T06:37:53.776Z,15.09
2018-04-23T06:39:02.611Z,15.07
2018-04-23T06:40:11.446Z,15.07
2018-04-23T06:41:20.280Z,15.19
2018-04-23T06:42:29.215Z,15.13
2018-04-23T06:43:38.048Z,15.1
2018-04-23T06:44:46.887Z,15.1
2018-04-23T06:45:55.716Z,15.14
2018-04-23T06:48:45.445Z,15.11
2018-04-23T06:49:54.279Z,15.09
2018-04-23T06:51:03.115Z,15.16
2018-04-23T06:52:12.228Z,15.14
2018-04-23T06:53:21.391Z,15.2
2018-04-23T06:54:30.229Z,15.27
2018-04-23T06:55:39.339Z,15.28
2018-04-23T06:56:48.451Z,15.27
2018-04-23T06:57:57.557Z,15.32
2018-04-23T06:59:06.456Z,15.25
2018-04-23T07:00:15.278Z,15.2
2018-04-23T07:01:24.117Z,15.27
2018-04-23T07:02:32.956Z,15.29
2018-04-23T07:03:41.789Z,15.21
2018-04-23T07:04:51.062Z,15.23
2018-04-23T07:06:00.189Z,15.34
2018-04-23T07:07:09.025Z,15.34
2018-04-23T07:08:18.142Z,15.44
2018-04-23T07:09:26.978Z,15.38
2018-04-23T07:10:35.915Z,15.39
2018-04-23T07:11:44.750Z,15.43
2018-04-23T07:12:53.588Z,15.49
2018-04-23T07:14:02.418Z,15.43
2018-04-23T07:15:11.260Z,15.49
2018-04-23T07:16:20.372Z,15.38
2018-04-23T07:17:29.213Z,15.5
2018-04-23T07:18:38.045Z,15.56
2018-04-23T07:19:46.889Z,15.57
2018-04-23T07:20:56.011Z,15.68
2018-04-23T07:22:04.997Z,15.62
2018-04-23T07:23:13.833Z,15.68
2018-04-23T07:24:22.672Z,15.62
2018-04-23T07:25:31.799Z,15.72
2018-04-23T07:26:40.623Z,15.68
2018-04-23T07:27:49.557Z,15.69
2018-04-23T07:28:58.393Z,15.78
2018-04-23T07:30:07.230Z,15.83
2018-04-23T07:31:16.067Z,15.65
2018-04-23T07:32:24.905Z,15.67
2018-04-23T07:33:33.942Z,15.65
2018-04-23T07:34:43.052Z,15.6
2018-04-23T07:35:51.888Z,15.56
2018-04-23T07:37:00.728Z,15.57
2018-04-23T07:38:09.837Z,15.53
2018-04-23T07:39:18.777Z,15.57
2018-04-23T07:40:27.613Z,15.51
2018-04-23T07:41:36.457Z,15.51
2018-04-23T07:42:45.291Z,15.51
2018-04-23T07:43:54.128Z,15.6
2018-04-23T07:45:03.168Z,15.54
2018-04-23T07:46:12.001Z,15.57
2018-04-23T07:47:21.113Z,15.62
2018-04-23T07:48:29.948Z,15.54
2018-04-23T07:49:38.787Z,15.65
2018-04-23T07:50:47.672Z,15.62
2018-04-23T07:51:56.514Z,15.67
2018-04-23T07:53:05.341Z,15.6
2018-04-23T07:54:14.227Z,15.72
2018-04-23T07:55:23.290Z,15.72
2018-04-23T07:56:32.479Z,15.82
2018-04-23T07:57:41.318Z,15.82
2018-04-23T07:58:50.152Z,15.87
2018-04-23T07:59:59.044Z,15.96
2018-04-23T08:01:07.823Z,15.82
2018-04-23T08:02:16.816Z,15.76
2018-04-23T08:03:25.650Z,15.78
2018-04-23T08:04:34.488Z,15.84
2018-04-23T08:05:43.602Z,15.84
2018-04-23T08:06:52.786Z,15.83
2018-04-23T08:08:01.655Z,15.92
2018-04-23T08:09:10.769Z,15.94
2018-04-23T08:10:19.606Z,15.97
2018-04-23T08:11:28.711Z,16.01
2018-04-23T08:12:37.546Z,16.01
2018-04-23T08:13:46.482Z,16
2018-04-23T08:14:55.317Z,15.96
2018-04-23T08:16:04.154Z,15.9
2018-04-23T08:17:12.992Z,15.8
2018-04-23T08:18:22.111Z,15.78
2018-04-23T08:19:31.326Z,15.8
2018-04-23T08:20:40.434Z,15.86
2018-04-23T08:21:49.271Z,15.86
2018-04-23T08:22:58.109Z,15.87
2018-04-23T08:24:06.949Z,15.9
2018-04-23T08:25:15.837Z,15.86
2018-04-23T08:26:24.676Z,15.89
2018-04-23T08:27:33.512Z,15.92
2018-04-23T08:28:42.349Z,15.97
2018-04-23T08:29:51.187Z,16.02
2018-04-23T08:31:00.356Z,16.08
2018-04-23T08:32:09.187Z,16.11
2018-04-23T08:33:18.297Z,16.08
2018-04-23T08:34:27.135Z,16.23
2018-04-23T08:35:35.972Z,16.31
2018-04-23T08:36:45.109Z,16.33
2018-04-23T08:37:54.224Z,16.25
2018-04-23T08:39:03.061Z,16.33
2018-04-23T08:40:11.898Z,16.39
2018-04-23T08:41:20.736Z,16.48
2018-04-23T08:42:29.676Z,16.43
2018-04-23T08:43:38.514Z,16.28
2018-04-23T08:44:47.633Z,16.27
2018-04-23T08:45:56.467Z,16.34
2018-04-23T08:47:05.304Z,16.21
2018-04-23T08:48:15.074Z,16.27
2018-04-23T08:49:24.195Z,16.27
2018-04-23T08:50:33.025Z,16.24
2018-04-23T08:51:41.861Z,16.27
2018-04-23T08:52:50.702Z,16.34
2018-04-23T08:53:59.969Z,16.48
2018-04-23T08:55:08.800Z,16.31
2018-04-23T08:56:18.183Z,16.39
2018-04-23T08:57:27.020Z,16.35
2018-04-23T08:58:35.858Z,16.3
2018-04-23T08:59:44.696Z,16.34
2018-04-23T09:00:53.533Z,16.41
2018-04-23T09:02:02.371Z,16.34
2018-04-23T09:03:11.488Z,16.28
2018-04-23T09:04:20.324Z,16.01
2018-04-23T09:05:29.412Z,16
2018-04-23T09:06:38.252Z,15.9
2018-04-23T09:07:47.090Z,15.97
2018-04-23T09:08:56.201Z,16.05
2018-04-23T09:10:05.046Z,16.12
2018-04-23T09:11:13.930Z,16.11
2018-04-23T09:12:23.040Z,16.08
2018-04-23T09:13:31.874Z,16.08
2018-04-23T09:14:40.712Z,15.96
2018-04-23T09:15:49.552Z,15.94
2018-04-23T09:16:58.490Z,15.92
2018-04-23T09:18:07.328Z,15.92
2018-04-23T09:19:16.166Z,15.9
2018-04-23T09:20:24.998Z,15.97
2018-04-23T09:21:34.110Z,16.01
2018-04-23T09:22:43.373Z,15.92
2018-04-23T09:23:52.209Z,15.9
2018-04-23T09:25:01.321Z,16.02
2018-04-23T09:26:10.164Z,16
2018-04-23T09:27:18.998Z,16.01
2018-04-23T09:28:28.186Z,16.15
2018-04-23T09:29:37.300Z,16.07
2018-04-23T09:30:46.388Z,16.12
2018-04-23T09:31:55.503Z,16.24
2018-04-23T09:33:04.339Z,16.3
2018-04-23T09:34:13.176Z,16.39
2018-04-23T09:35:22.015Z,16.49
2018-04-23T09:36:30.855Z,16.57
2018-04-23T09:37:39.969Z,16.64
2018-04-23T09:38:49.082Z,16.75
2018-04-23T09:39:58.019Z,16.67
2018-04-23T09:41:06.857Z,16.71
2018-04-23T09:42:15.695Z,16.68
2018-04-23T09:43:24.532Z,16.78
2018-04-23T09:44:33.445Z,16.85
2018-04-23T09:45:42.304Z,16.86
2018-04-23T09:46:51.145Z,16.89
2018-04-23T09:47:59.984Z,16.94
2018-04-23T09:49:08.815Z,17.06
2018-04-23T09:50:17.929Z,16.88
2018-04-23T09:51:26.763Z,16.93
2018-04-23T09:52:35.600Z,16.97
2018-04-23T09:53:44.438Z,17
2018-04-23T09:54:53.275Z,17.21
2018-04-23T09:56:02.112Z,17.12
2018-04-23T09:57:10.998Z,17.21
2018-04-23T09:58:19.835Z,17.34
2018-04-23T09:59:28.674Z,17.26
2018-04-23T10:00:37.785Z,17.25
2018-04-23T10:01:46.619Z,17.26
2018-04-23T10:02:55.879Z,17.3
2018-04-23T10:04:04.995Z,17.23
2018-04-23T10:05:13.833Z,17.21
2018-04-23T10:06:22.667Z,17.25
2018-04-23T10:07:31.504Z,17.21
2018-04-23T10:08:40.449Z,17.28
2018-04-23T10:09:49.555Z,17.26
2018-04-23T10:10:58.404Z,17.21
2018-04-23T10:12:07.283Z,17.33
2018-04-23T10:13:16.450Z,17.14
2018-04-23T10:14:25.638Z,17.15
2018-04-23T10:15:35.047Z,17.12
2018-04-23T10:16:44.162Z,17.12
2018-04-23T10:17:53.001Z,17.04
2018-04-23T10:19:01.836Z,17.08
2018-04-23T10:20:10.676Z,17.03
2018-04-23T10:21:19.516Z,17
2018-04-23T10:22:28.357Z,16.98
2018-04-23T10:23:37.464Z,16.91
2018-04-23T10:24:46.304Z,16.94
2018-04-23T10:25:55.423Z,16.97
2018-04-23T10:27:04.266Z,16.88
2018-04-23T10:28:13.103Z,16.89
2018-04-23T10:29:21.944Z,16.78
2018-04-23T10:30:30.779Z,16.85
2018-04-23T10:31:39.990Z,16.76
2018-04-23T10:32:49.104Z,16.85
2018-04-23T10:33:58.215Z,16.75
2018-04-23T10:35:07.054Z,16.6
2018-04-23T10:36:16.169Z,16.5
2018-04-23T10:37:25.281Z,16.56
2018-04-23T10:38:34.393Z,16.49
2018-04-23T10:39:43.231Z,16.75
2018-04-23T10:40:52.069Z,16.71
2018-04-23T10:42:00.905Z,16.76
2018-04-23T10:43:09.740Z,16.78
2018-04-23T10:44:18.576Z,16.94
2018-04-23T10:45:27.780Z,16.89
2018-04-23T10:46:36.574Z,16.94
2018-04-23T10:47:45.410Z,16.94
2018-04-23T10:48:54.247Z,16.91
2018-04-23T10:50:03.083Z,17.08
2018-04-23T10:51:11.921Z,17.08
2018-04-23T10:52:21.033Z,17.14
2018-04-23T10:53:29.868Z,17.18
2018-04-23T10:54:38.716Z,17.18
2018-04-23T10:55:47.825Z,17.3
2018-04-23T10:56:56.666Z,17.33
2018-04-23T10:58:05.502Z,17.49
2018-04-23T10:59:14.340Z,17.58
2018-04-23T11:00:23.274Z,17.63
2018-04-23T11:01:32.111Z,17.59
2018-04-23T11:02:40.954Z,17.4
2018-04-23T11:03:50.340Z,17.4
2018-04-23T11:04:59.177Z,17.34
2018-04-23T11:06:08.014Z,17.31
2018-04-23T11:07:16.851Z,17.22
2018-04-23T11:08:25.962Z,17.16
2018-04-23T11:09:34.797Z,17.19
2018-04-23T11:10:43.633Z,17.15
2018-04-23T11:11:52.669Z,17.22
2018-04-23T11:13:01.506Z,17.18
2018-04-23T11:14:10.620Z,17.15
2018-04-23T11:15:19.457Z,17.14
2018-04-23T11:16:28.297Z,17.03
2018-04-23T11:17:37.236Z,16.93
2018-04-23T11:18:46.073Z,17.12
2018-04-23T11:19:55.186Z,17.22
2018-04-23T11:21:04.025Z,17.22
2018-04-23T11:22:12.860Z,17.26
2018-04-23T11:23:22.022Z,17.31
2018-04-23T11:24:30.858Z,17.31
2018-04-23T11:25:39.971Z,17.25
2018-04-23T11:26:48.807Z,17.25
2018-04-23T11:27:57.645Z,17.06
2018-04-23T11:29:06.771Z,17.04
2018-04-23T11:30:15.605Z,17.18
2018-04-23T11:31:24.437Z,17.18
2018-04-23T11:32:33.631Z,17.22
2018-04-23T11:33:42.392Z,17.11
2018-04-23T11:34:51.705Z,17.22
2018-04-23T11:36:00.817Z,17.31
2018-04-23T11:37:09.653Z,17.44
2018-04-23T11:38:18.492Z,17.56
2018-04-23T11:39:27.337Z,17.56
2018-04-23T11:40:36.950Z,17.62
2018-04-23T11:41:46.066Z,17.7
2018-04-23T11:42:54.906Z,17.59
2018-04-23T11:44:03.741Z,17.58
2018-04-23T11:45:12.604Z,17.64
2018-04-23T11:46:21.468Z,17.66
2018-04-23T11:47:30.599Z,17.74
2018-04-23T11:48:39.461Z,17.79
2018-04-23T11:49:48.580Z,17.77
2018-04-23T11:50:57.467Z,17.92
2018-04-23T11:52:06.309Z,17.89
2018-04-23T11:53:15.480Z,18.03
2018-04-23T11:54:24.323Z,18.08
2018-04-23T11:55:33.442Z,18.21
2018-04-23T11:56:42.280Z,18.29
2018-04-23T11:57:51.445Z,18.39
2018-04-23T11:59:00.288Z,18.45
2018-04-23T12:00:09.178Z,18.42
2018-04-23T12:01:18.032Z,18.62
2018-04-23T12:02:26.997Z,18.63
2018-04-23T12:03:35.870Z,18.75
2018-04-23T12:04:44.710Z,18.69
2018-04-23T12:05:54.104Z,18.75
2018-04-23T12:07:03.216Z,18.73
2018-04-23T12:08:12.106Z,18.78
2018-04-23T12:09:21.424Z,18.85
2018-04-23T12:10:30.563Z,18.82
2018-04-23T12:11:39.429Z,18.75
2018-04-23T12:12:48.563Z,18.54
2018-04-23T12:13:57.394Z,18.41
2018-04-23T12:15:06.610Z,18.35
2018-04-23T12:16:15.827Z,18.41
2018-04-23T12:17:25.071Z,18.58
2018-04-23T12:18:34.195Z,18.47
2018-04-23T12:19:43.035Z,18.39
2018-04-23T12:20:52.180Z,18.41
2018-04-23T12:22:01.026Z,18.3
2018-04-23T12:23:10.242Z,18.39
2018-04-23T12:24:19.184Z,18.52
2018-04-23T12:25:28.041Z,18.63
2018-04-23T12:26:37.065Z,18.8
2018-04-23T12:27:45.908Z,18.88
2018-04-23T12:28:54.751Z,19
2018-04-23T12:30:03.620Z,18.95
2018-04-23T12:31:12.462Z,18.82
2018-04-23T12:32:21.356Z,18.98
2018-04-23T12:33:30.475Z,19.02
2018-04-23T12:34:39.316Z,18.95
2018-04-23T12:35:48.408Z,18.95
2018-04-23T12:36:57.295Z,18.94
2018-04-23T12:38:06.134Z,18.91
2018-04-23T12:39:14.978Z,19.1
2018-04-23T12:40:23.825Z,19.1
2018-04-23T12:41:32.668Z,19.25
2018-04-23T12:42:41.610Z,19.44
2018-04-23T12:43:50.455Z,19.66
2018-04-23T12:44:59.297Z,19.8
2018-04-23T12:46:08.149Z,19.88
2018-04-23T12:47:16.987Z,19.88
2018-04-23T12:48:26.107Z,20.08
2018-04-23T12:49:34.952Z,20.16
2018-04-23T12:50:43.795Z,20.17
2018-04-23T12:51:52.643Z,20.24
2018-04-23T12:53:01.487Z,20.33
2018-04-23T12:54:10.331Z,20.48
2018-04-23T12:55:19.184Z,20.35
2018-04-23T12:56:28.026Z,20.48
2018-04-23T12:57:37.151Z,20.51
2018-04-23T12:58:46.274Z,20.5
2018-04-23T12:59:55.394Z,20.31
2018-04-23T13:01:04.239Z,20.39
2018-04-23T13:02:13.098Z,20.33
2018-04-23T13:03:22.089Z,20.21
2018-04-23T13:04:30.934Z,20.17
2018-04-23T13:05:39.778Z,20.17
2018-04-23T13:06:48.621Z,19.91
2018-04-23T13:07:57.467Z,19.81
2018-04-23T13:09:06.409Z,19.71
2018-04-23T13:10:15.253Z,19.62
2018-04-23T13:11:24.093Z,19.61
2018-04-23T13:12:32.937Z,19.77
2018-04-23T13:13:41.778Z,19.81
2018-04-23T13:14:50.622Z,19.76
2018-04-23T13:15:59.464Z,19.87
2018-04-23T13:17:08.307Z,19.92
2018-04-23T13:18:17.148Z,19.74
2018-04-23T13:19:26.279Z,19.77
2018-04-23T13:20:35.216Z,19.71
2018-04-23T13:21:44.058Z,19.65
2018-04-23T13:22:52.903Z,19.4
2018-04-23T13:24:02.016Z,19.26
2018-04-23T13:25:11.134Z,19.21
2018-04-23T13:26:20.079Z,19.29
2018-04-23T13:27:28.923Z,19.28
2018-04-23T13:28:38.313Z,19.31
2018-04-23T13:29:47.156Z,19.36
2018-04-23T13:30:56.368Z,19.41
2018-04-23T13:32:05.262Z,19.61
2018-04-23T13:33:14.651Z,19.69
2018-04-23T13:34:23.774Z,19.62
2018-04-23T13:35:32.908Z,19.71
2018-04-23T13:36:42.061Z,19.61
2018-04-23T13:37:52.012Z,19.59
2018-04-23T13:39:01.408Z,19.56
2018-04-23T13:40:10.251Z,19.51
2018-04-23T13:41:19.093Z,19.59
2018-04-23T13:42:27.958Z,19.69
2018-04-23T13:43:37.430Z,19.78
2018-04-23T13:44:46.549Z,20.01
2018-04-23T13:45:55.687Z,20.1
2018-04-23T13:47:04.807Z,20.32
2018-04-23T13:48:13.666Z,20.39
2018-04-23T13:49:22.511Z,20.35
2018-04-23T13:50:31.360Z,20.32
2018-04-23T13:51:40.220Z,20.14
2018-04-23T13:52:49.342Z,20.06
2018-04-23T13:53:58.186Z,19.84
2018-04-23T13:55:07.227Z,19.78
2018-04-23T13:56:16.090Z,19.56
2018-04-23T13:57:24.912Z,19.58
2018-04-23T13:58:33.755Z,19.55
2018-04-23T13:59:42.599Z,19.39
2018-04-23T14:00:51.492Z,19.33
2018-04-23T14:02:00.336Z,19.23
2018-04-23T14:03:09.177Z,19.46
2018-04-23T14:04:18.300Z,19.5
2018-04-23T14:05:27.142Z,19.59
2018-04-23T14:06:36.241Z,19.68
2018-04-23T14:07:45.086Z,19.74
2018-04-23T14:08:54.209Z,19.71
2018-04-23T14:10:03.101Z,19.51
2018-04-23T14:11:11.945Z,19.41
2018-04-23T14:12:21.068Z,19.37
2018-04-23T14:13:29.912Z,19.25
2018-04-23T14:14:38.754Z,19.11
2018-04-23T14:15:47.871Z,18.95
2018-04-23T14:16:56.993Z,18.84
2018-04-23T14:18:06.008Z,18.98
2018-04-23T14:19:15.148Z,19.25
2018-04-23T14:20:23.993Z,19.51
2018-04-23T14:21:32.840Z,19.76
2018-04-23T14:22:42.309Z,19.94
2018-04-23T14:23:51.677Z,19.91
2018-04-23T14:25:00.616Z,19.71
2018-04-23T14:26:09.741Z,19.76
2018-04-23T14:27:18.641Z,19.74
2018-04-23T14:28:27.485Z,19.44
2018-04-23T14:29:36.431Z,19.44
2018-04-23T14:30:45.561Z,19.44
2018-04-23T14:31:54.963Z,19.41
2018-04-23T14:33:03.816Z,19.59
2018-04-23T14:34:12.660Z,19.68
2018-04-23T14:35:21.506Z,19.62
2018-04-23T14:36:30.349Z,19.59
2018-04-23T14:37:39.223Z,19.51
2018-04-23T14:38:48.052Z,19.54
2018-04-23T14:39:56.948Z,19.48
2018-04-23T14:41:05.940Z,19.41
2018-04-23T14:42:14.817Z,19.41
2018-04-23T14:43:23.684Z,19.29
2018-04-23T14:44:32.526Z,19.31
2018-04-23T14:45:41.369Z,19.4
2018-04-23T14:46:50.486Z,19.4
2018-04-23T14:47:59.328Z,19.56
2018-04-23T14:49:08.171Z,19.61
2018-04-23T14:50:17.283Z,19.76
2018-04-23T14:51:26.126Z,19.68
2018-04-23T14:52:35.248Z,19.77